Fabre, Canada
Current Conditions -  °F | °C
As of 7:32 PM on Wednesday 26 Nov 2014 (Local Time) from CYXR Reporting Station
Broken Clouds Broken Clouds  
Wind Chill: 10°   Ceiling: 10000
Heat Index: 10°   Visibility: 9mi
Dew Point: 10°   Wind: 0mph
Humidity: 100%   Direction: NA
Pressure: 30.2"   Gusts: NA
Location:  47.2°N, 79.37°W
Report Text: CYXR 270032Z AUTO 00000KT 9SM BKN100 M12/M12 A3020 RMK ICG SLP248
Loading
Personal Weather Stations






























Interactive Weather Map New forecast layout! Learn more

10-Day Weather Forecast

Advertisements
Track Severe Weather on mobile